createdAt,value
2023-05-05T00:08:07.448Z,12.5
2023-05-05T00:18:08.428Z,12.7
2023-05-05T00:28:09.148Z,12.8
2023-05-05T00:38:10.040Z,12.5
2023-05-05T01:28:11.184Z,12.4
2023-05-05T02:28:15.067Z,12.2
2023-05-05T02:38:16.025Z,12.2
2023-05-05T02:48:16.575Z,12.3
2023-05-05T03:18:18.927Z,12.8
2023-05-05T03:48:21.394Z,13.6
2023-05-05T05:18:26.073Z,14
2023-05-05T06:18:29.676Z,16.6
2023-05-05T06:58:31.763Z,18.2
2023-05-05T07:08:32.110Z,18.1
2023-05-05T07:18:32.224Z,18.2
2023-05-05T07:28:33.164Z,18.3
2023-05-05T07:48:34.721Z,18.6
2023-05-05T11:58:47.531Z,21.8
2023-05-05T12:08:48.281Z,21.4
2023-05-05T12:18:49.112Z,21
2023-05-05T12:28:49.830Z,20.5
2023-05-05T12:38:50.284Z,19.8
2023-05-05T12:48:50.498Z,19
2023-05-05T12:58:51.089Z,18.8
2023-05-05T13:08:51.325Z,18.3
2023-05-05T13:18:51.953Z,17.5
2023-05-05T13:38:52.675Z,17.6
2023-05-05T14:18:54.992Z,16.6
2023-05-05T14:28:55.153Z,15.9
2023-05-05T14:38:56.159Z,15.3
2023-05-05T14:48:56.545Z,14.5
2023-05-05T14:58:56.748Z,14.1
2023-05-05T15:08:57.679Z,13.8
2023-05-05T15:18:58.206Z,13.6
2023-05-05T15:28:58.357Z,13.5
2023-05-05T15:38:59.069Z,13.4
2023-05-05T15:48:59.736Z,13.6
2023-05-05T15:59:00.351Z,13.7
2023-05-05T16:09:00.696Z,13.5
2023-05-05T16:19:00.885Z,13.5
2023-05-05T16:29:01.534Z,13.3
2023-05-05T16:39:02.347Z,13.3
2023-05-05T16:49:03.427Z,13.4
2023-05-05T17:09:03.972Z,14.9
2023-05-05T17:19:05.076Z,14.7
2023-05-05T17:39:05.780Z,14.6
2023-05-05T17:49:06.745Z,14.7
2023-05-05T17:59:07.807Z,14.3
2023-05-05T18:09:10.441Z,13.8
2023-05-05T18:29:09.694Z,13.2
2023-05-05T18:39:09.991Z,13.1
2023-05-05T18:49:10.429Z,12.8
2023-05-05T18:59:10.911Z,12.6
2023-05-05T19:09:11.920Z,12.5
2023-05-05T19:19:12.656Z,12.2
2023-05-05T19:29:13.106Z,12
2023-05-05T19:39:15.691Z,11.7
2023-05-05T19:49:14.112Z,11.7
2023-05-05T19:59:14.962Z,11.5
2023-05-05T20:09:15.615Z,11.3
2023-05-05T20:19:16.413Z,11.2
2023-05-05T20:29:16.868Z,11.1
2023-05-05T20:39:17.197Z,11
2023-05-05T20:49:18.212Z,10.7
2023-05-05T20:59:18.863Z,10.6
2023-05-05T21:09:19.869Z,10.5
2023-05-05T21:29:20.141Z,10.1
2023-05-05T21:49:21.885Z,9.9
2023-05-05T21:59:22.631Z,9.7
2023-05-05T22:09:23.227Z,9.6
2023-05-05T22:19:23.439Z,9.5
2023-05-05T22:29:23.956Z,9.6
2023-05-05T22:39:24.689Z,9.5
2023-05-05T22:49:24.878Z,9.4
2023-05-05T22:59:25.362Z,9.3
2023-05-05T23:09:26.199Z,9.2
2023-05-05T23:19:26.705Z,9.2
2023-05-05T23:39:28.031Z,9.2
2023-05-05T23:49:29.036Z,9.2
